Nearby METAR Reports

 

KOXC - Oxford/Waterbury, Connecticut, USA
Distance from station: SE 8mi, 12km
Updated: Thu, 25-May-2017 3:50pm EDT
Light drizzle, Mist, Overcast
Light drizzle, Mist, Overcast
 Wind from ENE
Wind: ENE 8 mph , 13 km/h, Gust: 20 mph , 31 km/h
Temperature: 57°F , 14°C
Dew Point: 52°F , 11°C
Humidity: 82%
Barometer: 29.61 inHg , 1002.7 hPa
Summary: Light drizzle, Mist
Clouds: Overcast
Visibility: 2 miles , 3 km
Cloud details: Overcast 400 ft
2017/05/25 19:50 KOXC 251950Z 07007G17KT 040V100 2SM -DZ BR OVC004 14/11 A2961
KDXR - Danbury, Connecticut, USA
Distance from station: SW 19mi, 30km
Updated: Thu, 25-May-2017 3:53pm EDT
Light rain, Mist, Overcast
Light rain, Mist, Overcast
 Wind from ENE
Wind: ENE 10 mph , 17 km/h
Temperature: 57°F , 14°C
Dew Point: 57°F , 14°C
Humidity: 100%
Barometer: 29.60 inHg , 1002.4 hPa
Summary: Light rain, Mist
Clouds: Overcast
Visibility: 1 3/4 miles , 5 km
Cloud details: Mostly cloudy 700 ft
Overcast 1200 ft
2017/05/25 19:53 KDXR 251953Z 06009KT 1 3/4SM -RA BR BKN007 OVC012 14/14 A2960 RMK AO2 SLP022 P0000 T01390139
 
KMMK - Meriden, Connecticut, USA
Distance from station: E 20mi, 33km
Updated: Thu, 25-May-2017 3:53pm EDT
Overcast
Overcast
 Wind from NNE
Wind: NNE 6 mph , 9 km/h
Temperature: 57°F , 14°C
Dew Point: 57°F , 14°C
Humidity: 100%
Barometer: 29.62 inHg , 1003 hPa
Clouds: Overcast
Visibility: 10 miles , 16 km
Cloud details: Overcast 1000 ft
2017/05/25 19:53 KMMK 251953Z AUTO 03005KT 10SM OVC010 14/14 A2962 RMK AO2 RAE52 SLP029 P0002 T01440139 TSNO
KBDR - Bridgeport, Connecticut, USA
Distance from station: S 27mi, 44km
Updated: Thu, 25-May-2017 3:52pm EDT
Light rain, Mist, Overcast
Light rain, Mist, Overcast
 Wind from E
Wind: E 16 mph , 26 km/h
Temperature: 59°F , 15°C
Dew Point: 55°F , 13°C
Humidity: 88%
Barometer: 29.59 inHg , 1002 hPa
Summary: Light rain, Mist
Clouds: Overcast
Visibility: 4 miles , 6 km
Cloud details: Mostly cloudy 600 ft
Overcast 1100 ft
2017/05/25 19:52 KBDR 251952Z 09014KT 4SM -RA BR BKN006 OVC011 15/13 A2959 RMK AO2 RAB1857E06B25 CIG 004V009 SLP020 P0000 T01500133
 
KHVN - New Haven/Tweed, Connecticut, USA
Distance from station: SE 27mi, 44km
Updated: Thu, 25-May-2017 3:53pm EDT
Light rain, Mist, Overcast
Light rain, Mist, Overcast
 Wind from ENE
Wind: ENE 8 mph , 13 km/h
Temperature: 61°F , 16°C
Dew Point: 57°F , 14°C
Humidity: 88%
Barometer: 29.60 inHg , 1002.4 hPa
Summary: Light rain, Mist
Clouds: Overcast
Visibility: 3 miles , 5 km
Cloud details: Overcast 800 ft
2017/05/25 19:53 KHVN 251953Z 07007KT 3SM -RA BR OVC008 16/14 A2960 RMK AO2 RAB1857E10B29 CIG 007V010 SLP022 P0004 T01560144
KHFD - Hartford/Brainar, Connecticut, USA
Distance from station: ENE 32mi, 52km
Updated: Thu, 25-May-2017 3:53pm EDT
Light rain, Overcast
Light rain, Overcast
 Wind from NE
Wind: NE 14 mph , 22 km/h, Gust: 21 mph , 33 km/h
Temperature: 59°F , 15°C
Dew Point: 55°F , 13°C
Humidity: 88%
Barometer: 29.64 inHg , 1003.7 hPa
Summary: Light rain
Clouds: Overcast
Visibility: 10 miles , 16 km
Cloud details: Overcast 1400 ft
2017/05/25 19:53 KHFD 251953Z 05012G18KT 10SM -RA OVC014 15/13 A2964 RMK AO2 RAE1854B21 SLP037 P0000 T01500133
 
KPOU - Poughkeepsie, New York, USA
Distance from station: W 35mi, 56km
Updated: Thu, 25-May-2017 3:59pm EDT
Light rain, Mist, Overcast
Light rain, Mist, Overcast
 Wind from ENE
Wind: ENE 3 mph , 6 km/h
Temperature: 61°F , 16°C
Dew Point: 57°F , 14°C
Humidity: 88%
Barometer: 29.58 inHg , 1001.7 hPa
Summary: Light rain, Mist
Clouds: Overcast
Visibility: 2 miles , 3 km
Cloud details: Few Clouds 900 ft
Overcast 1800 ft
2017/05/25 19:59 KPOU 251959Z 06003KT 2SM -RA BR FEW009 OVC018 16/14 A2958 RMK AO2 P0000 T01560139
KBDL - Windsor Locks, Connecticut, USA
Distance from station: NE 38mi, 62km
Updated: Thu, 25-May-2017 3:51pm EDT
Light rain, Mist, Overcast
Light rain, Mist, Overcast
 Wind from NNE
Wind: NNE 12 mph , 19 km/h
Temperature: 57°F , 14°C
Dew Point: 55°F , 13°C
Humidity: 94%
Barometer: 29.67 inHg , 1004.7 hPa
Summary: Light rain, Mist
Clouds: Overcast
Visibility: 3 miles , 5 km
Cloud details: Mostly cloudy 600 ft
Overcast 1200 ft
2017/05/25 19:51 KBDL 251951Z 03010KT 3SM -RA BR BKN006 OVC012 14/13 A2967 RMK AO2 SLP045 P0002 T01390128
 
KSNC - Chester, Connecticut, USA
Distance from station: ESE 39mi, 63km
Updated: Thu, 25-May-2017 2:55pm EDT
Light rain, Overcast
Light rain, Overcast
 Wind from ENE
Wind: ENE 9 mph , 15 km/h, Gust: 16 mph , 26 km/h
Temperature: 59°F , 15°C
Dew Point: 59°F , 15°C
Humidity: 100%
Barometer: 29.64 inHg , 1003.7 hPa
Summary: Light rain
Clouds: Overcast
Visibility: 1 mile , 2 km
Cloud details: Overcast 500 ft
2017/05/25 18:55 KSNC 251855Z AUTO 07008G14KT 1SM -RA OVC005 15/15 A2964 RMK AO2
KHPN - White Plains, New York, USA
Distance from station: SW 42mi, 67km
Updated: Thu, 25-May-2017 3:56pm EDT
Light rain, Mist, Overcast
Light rain, Mist, Overcast
 Wind from E
Wind: E 13 mph , 20 km/h, Gust: 23 mph , 37 km/h
Temperature: 57°F , 14°C
Dew Point: 55°F , 13°C
Humidity: 94%
Barometer: 29.57 inHg , 1001.4 hPa
Summary: Light rain, Mist
Clouds: Overcast
Visibility: 1 1/4 miles , 2 km
Cloud details: Mostly cloudy 300 ft
Overcast 400 ft
2017/05/25 19:56 KHPN 251956Z 10011G20KT 1 1/4SM R16/4500VP6000FT -RA BR BKN003 OVC004 14/13 A2957 RMK AO2 SLP014 P0002 T01390128
 
KSWF - Newburgh/Stewart, New York, USA
Distance from station: W 45mi, 72km
Updated: Thu, 25-May-2017 3:45pm EDT
Light drizzle, Mist, Overcast
Light drizzle, Mist, Overcast
 Wind from E
Wind: E 13 mph , 20 km/h
Temperature: 59°F , 15°C
Dew Point: 59°F , 15°C
Humidity: 100%
Barometer: 29.59 inHg , 1002 hPa
Summary: Light drizzle, Mist
Clouds: Overcast
Visibility: 3 miles , 5 km
Cloud details: Mostly cloudy 400 ft
Overcast 1200 ft
2017/05/25 19:45 KSWF 251945Z 09011KT 3SM -DZ BR BKN004 OVC012 15/15 A2959
KBAF - Westfield, Massachusetts, USA
Distance from station: NNE 50mi, 80km
Updated: Thu, 25-May-2017 3:58pm EDT
Light rain, Mist, Overcast
Light rain, Mist, Overcast
 Wind from NNE
Wind: NNE 7 mph , 11 km/h
Temperature: 55°F , 13°C
Dew Point: 55°F , 13°C
Humidity: 100%
Barometer: 29.67 inHg , 1004.7 hPa
Summary: Light rain, Mist
Clouds: Overcast
Visibility: 2 1/2 miles , 2 km
Cloud details: Mostly cloudy 800 ft
Mostly cloudy 1500 ft
Overcast 1900 ft
2017/05/25 19:58 KBAF 251958Z 03006KT 2 1/2SM -RA BR BKN008 BKN015 OVC019 13/13 A2967 RMK AO2 P0000 T01280128